Terminal Aerodrome Forecast
Issued by NWS

Home | Current Version | Previous Version | Text Only | Print | Product List | Glossary On
Versions: 1 2 3 4 5 6 7 8 9 10 11 12 13 14 15 16 17
381
FTUS46 KMFR 240539
TAFOTH
TAF
KOTH 240539Z 2406/2506 17012G18KT P6SM -RA SCT025 OVC035
      WS020/18050KT
     FM240700 18012G18KT 3SM RA BR SCT010 BKN015 OVC025
     FM241300 17009KT P6SM -SHRA SCT015 BKN025 OVC040
     FM241900 23012G18KT P6SM -SHRA BKN025 OVC040=

USA.gov is the U.S. government's official web portal to all federal, state and local government web resources and services.